Zug um Zug &ndash Play Pink Zug um Zug &ndash Play Pink

Geschichte der Partien

Geschichte der Partien von *player246644
Spiel: 

Geschichte der Partien
[letzte 15 Tage] | [2011 (251)] | [2010 (106)] | [2009 (322)] | [2008 (354)] | [2007 (469)] | [2006 (512)] 
Datum Punkte für *player246644 Andere Spieler und Punkte Variante Partie wird gewertet
30.12.2008 166 *player500309(109) - Queeny86(94) - tarheelfan(80) us x
30.12.2008 143 i need chocolate(163) - *player378511(106) ch x
30.12.2008 90 marclaire(164) - *player504613(115) - *player502540(110) us x
29.12.2008 108 michcat(152) - habe(111) - guest503864(52) us x
29.12.2008 90 *player437761(140) - kinetic(97) - brwayne88(58) us x
28.12.2008 120 *player500122(135) - *player502667(118) eu x
28.12.2008 132 mytrain(170) - *player500144(117) - *player502908(68) us x
28.12.2008 153 *player502908(110) - Sosraw(110) - *player500144(105) us x
26.12.2008 124 Dunck Express(128) - *player445863(115) - phoebus4(83) us
20.12.2008 175 goldeneye(148) - Kenics(124) - *player498759(120) u2 x
19.12.2008 126 *player438260(142) - *player492576(40) - *player483284(24) us x
19.12.2008 186 *player411262(166) - D&G72206(165) - *player325754(72) u2 x
19.12.2008 105 DavesRitz(142) - D&G72206(137) - mtenna99(92) u2 x
14.12.2008 86 Chorkie(113) - *player451715(84) - Bonnal79(36) us x
14.12.2008 127 *player496291(137) - *player455370(131) eu x
14.12.2008 113 Bonnal79(143) - side0103(130) - Chorkie(113) us x
13.12.2008 137 shabadran(140) - Jspawn(132) - *player153266(100) us x
13.12.2008 97 sadie(151) u2 x
10.12.2008 129 *player443790(158) - Innomine Pater(110) - *player494141(103) us x
05.12.2008 114 mbmccurdy(150) - twopuppysoup(130) - bsylvio(90) us x
Seiten (18): [1  2  3  4  5  6  7  8  9  10  11  12  13  14  15  16  >  » ]